F-HZAF est opérationnel

Rédigé par Admin - 16 mars 2015


F-HZAF, DR400-180Regent - quadriplace de voyage - vient en remplacement de F-BVMP vendu par son propriétaire l'ANEG.

Pour voler à bord de ce nouvel avion, vous devez contacter un instructeur pour un "lâcher" préalable.

Bons vols à bord de ce bel avion récent.



Classé dans : Actualités - Mots clés : aucun

A propos de l'auteur:

Pilote et webmaster de ce site.

Écrire un commentaire

Quelle est la dernière lettre du mot mnic ? : 



Webcam :

Nuit aéronautique

23 Oct 2018

Heure locale,
pour LFDL uniquement.

Lever du soleil aéronautique :08:00
Lever du soleil :08:30
Coucher du soleil :18:56
Coucher du soleil aéronautique :19:26

Metar

LFBI :
2018/10/23 17:30
LFBI 231730Z AUTO 33005KT CAVOK 12/06 Q1031 NOSIG
LFBI :
Poitiers, France (LFBI) 46-35N 000-19E 120M
Oct 23, 2018 - 01:30 PM EDT / 2018.10.23 1730 UTC
Wind: from the NNW (330 degrees) at 6 MPH (5 KT):0
Visibility: greater than 7 mile(s):0
Temperature: 53 F (12 C)
Dew Point: 42 F (6 C)
Relative Humidity: 66%
Pressure (altimeter): 30.45 in. Hg (1031 hPa)
ob: LFBI 231730Z AUTO 33005KT CAVOK 12/06 Q1031 NOSIG
cycle: 17

Afficher le metar d'une autre station :
Code OACI :

Aéroclub de Loudun


Bellevue
86200 Loudun


Contacter Michel Richez (président)

  • Mail:michel.richez@free.fr
  • Tel:09-50-38-02-06
  • Mobile:06-52-73-09-01



agrandir le plan

Newsletter

Mon e-mail :